Pulaski, IA (52584)

5:29 PM CDT on October 23, 2014 (GMT -0500)
Wyacondah TWP | Change Station
CLOSE
Current Station
Personal Weather Station
Location: Bloomfield, IA
Elevation: 886 ft
Nearby Weather Stations
Active Advisory: Dense Fog Advisory Active Notice: Public Information Statement

Elev 886 ft 40.67 °N, 92.45 °W | Updated 1 second ago

Overcast
Overcast
63.0 °F
Feels Like 63.0 °F
N
3.1
Wind Variable Wind from WSW
Gusts 5.4 mph

Today
High -- | Low -- °F
--% Chance of Precip.
Yesterday
High -- | Low -- °F
Precip. -- in
7:28 AM 6:16 PM
New Moon, 0% visible
Pressure 30.03 in
Visibility -9999.0 miles
Clouds Overcast 1700 ft
Dew Point 59 °F
Humidity 86%
Rainfall 0.00 in
Snow Depth Not available.
UV 0 out of 12
Pollen .30 out of 12
Air Quality Not available.
Flu Activity Sporadic
METAR KFFL 232215Z AUTO 28006KT OVC017 17/14 A3003 RMK AO2

More Conditions Fewer Conditions

Pressure 30.03 in
Visibility -9999.0 miles
Clouds Overcast 1700 ft
Dew Point 59 °F
Humidity 86%
Rainfall 0.00 in
Snow Depth Not available.
UV 0 out of 12
Pollen .30 out of 12
Air Quality Not available.
Flu Activity Sporadic
METAR KFFL 232215Z AUTO 28006KT OVC017 17/14 A3003 RMK AO2

More Conditions Fewer Conditions

10-Day Weather Forecast

Almanac

Astronomy

Oct. 23, 2014 Rise Set
Actual Time 7:28 AM CDT 6:16 PM CDT
Civil Twilight 7:01 AM CDT 6:44 PM CDT
Nautical Twilight 6:29 AM CDT 7:16 PM CDT
Astronomical Twilight 5:57 AM CDT 7:48 PM CDT
Moon 7:08 AM CDT 6:18 PM CDT
Length of Visible Light 11h 43m
Length of Day
10h 48m
Tomorrow will be 2m 31s shorter.
New Moon, 0% of the Moon is Illuminated
Today
New Moon
Oct 30
First Quarter
Nov 6
Full
Nov 14
Last Quarter
Nov 22
New

Today's Extremes

State Highs State Lows

Community

WunderPhotos

Upload Photos

1,764,387 photos uploaded!

WunderBlogs® & News

Nearby

Snow Depth

Station Depth Elevation
No new snow has been reported.

Earthquake Activity

City Distance Mag. Time & Date
No recent earthquake activity has been reported nearby.
Minimum magnitude displayed is 2.5.

Coastal Water Temperatures

Place Temperature
No Stations Reporting

Nearby Weather Stations